createdAt,value
2022-12-19T00:01:53.885Z,10.10
2022-12-19T00:04:21.204Z,9.85
2022-12-19T00:06:48.853Z,11.30
2022-12-19T00:09:18.554Z,11.57
2022-12-19T00:11:47.385Z,10.18
2022-12-19T00:14:13.861Z,11.25
2022-12-19T00:16:40.701Z,10.43
2022-12-19T00:19:07.351Z,10.40
2022-12-19T00:21:35.096Z,13.45
2022-12-19T00:24:12.416Z,10.13
2022-12-19T00:26:48.241Z,10.20
2022-12-19T00:29:14.824Z,9.70
2022-12-19T00:31:41.873Z,10.27
2022-12-19T00:34:09.182Z,9.75
2022-12-19T00:36:35.864Z,9.60
2022-12-19T00:39:07.785Z,9.05
2022-12-19T00:44:05.130Z,9.13
2022-12-19T00:46:34.933Z,11.05
2022-12-19T00:49:01.417Z,8.60
2022-12-19T00:51:30.111Z,10.27
2022-12-19T00:53:58.052Z,13.25
2022-12-19T00:56:28.025Z,8.10
2022-12-19T00:58:55.105Z,10.85
2022-12-19T01:01:25.308Z,7.75
2022-12-19T01:04:27.081Z,11.43
2022-12-19T01:06:38.681Z,8.85
2022-12-19T01:09:11.057Z,8.88
2022-12-19T01:11:56.747Z,10.10
2022-12-19T01:14:24.057Z,8.65
2022-12-19T01:16:51.347Z,10.38
2022-12-19T01:19:17.913Z,8.07
2022-12-19T01:21:44.358Z,11.25
2022-12-19T01:24:11.688Z,9.00
2022-12-19T01:26:38.314Z,10.70
2022-12-19T01:29:05.242Z,9.13
2022-12-19T01:31:33.058Z,10.35
2022-12-19T01:34:00.826Z,9.18
2022-12-19T01:36:28.179Z,8.55
2022-12-19T01:38:57.990Z,8.98
2022-12-19T01:41:24.615Z,9.93
2022-12-19T01:44:09.265Z,8.93
2022-12-19T01:46:45.895Z,8.13
2022-12-19T01:49:36.542Z,9.32
2022-12-19T01:52:06.553Z,8.55
2022-12-19T01:54:38.809Z,7.88
2022-12-19T01:57:10.417Z,8.68
2022-12-19T01:59:50.670Z,9.13
2022-12-19T02:02:29.642Z,9.20
2022-12-19T02:04:56.495Z,8.35
2022-12-19T02:07:25.610Z,7.65
2022-12-19T02:09:57.633Z,9.25
2022-12-19T02:12:32.794Z,9.65
2022-12-19T02:15:03.066Z,8.57
2022-12-19T02:17:52.585Z,9.20
2022-12-19T02:20:58.436Z,9.70
2022-12-19T02:24:00.213Z,9.50
2022-12-19T02:26:32.387Z,8.15
2022-12-19T02:29:18.217Z,9.43
2022-12-19T02:31:54.103Z,9.63
2022-12-19T02:34:44.530Z,10.07
2022-12-19T02:37:20.730Z,10.05
2022-12-19T02:40:04.325Z,10.50
2022-12-19T02:42:39.006Z,9.25
2022-12-19T02:45:08.951Z,10.75
2022-12-19T02:47:37.514Z,9.23
2022-12-19T02:50:04.874Z,9.07
2022-12-19T02:52:31.291Z,9.20
2022-12-19T02:55:01.550Z,10.13
2022-12-19T02:57:38.634Z,9.55
2022-12-19T03:00:22.146Z,8.48
2022-12-19T03:03:11.865Z,11.85
2022-12-19T03:05:57.785Z,8.40
2022-12-19T03:08:52.378Z,9.45
2022-12-19T03:11:21.750Z,9.10
2022-12-19T03:13:56.894Z,9.13
2022-12-19T03:16:24.410Z,9.25
2022-12-19T03:18:52.790Z,10.15
2022-12-19T03:21:37.539Z,9.07
2022-12-19T03:24:06.654Z,8.85
2022-12-19T03:26:41.371Z,9.90
2022-12-19T03:29:14.658Z,9.95
2022-12-19T03:31:42.894Z,7.93
2022-12-19T03:34:39.277Z,10.32
2022-12-19T03:37:09.774Z,9.25
2022-12-19T03:39:37.450Z,9.85
2022-12-19T03:42:24.541Z,10.32
2022-12-19T03:44:53.172Z,11.45
2022-12-19T03:47:29.221Z,10.45
2022-12-19T03:49:55.842Z,10.48
2022-12-19T03:52:44.610Z,10.18
2022-12-19T03:55:17.129Z,9.52
2022-12-19T03:57:52.321Z,8.88
2022-12-19T04:00:19.742Z,8.98
2022-12-19T04:02:52.094Z,11.45
2022-12-19T04:07:48.279Z,10.50
2022-12-19T04:10:19.121Z,12.63
2022-12-19T04:12:50.706Z,9.88
2022-12-19T04:15:17.611Z,10.80
2022-12-19T04:17:53.426Z,12.18
2022-12-19T04:20:22.347Z,10.45
2022-12-19T04:23:07.802Z,9.80
2022-12-19T04:25:38.540Z,9.52
2022-12-19T04:28:17.188Z,10.73
2022-12-19T04:30:45.147Z,8.43
2022-12-19T04:33:11.812Z,9.30
2022-12-19T04:35:38.680Z,11.93
2022-12-19T04:38:06.043Z,11.75
2022-12-19T04:40:40.704Z,9.02
2022-12-19T04:43:08.425Z,13.90
2022-12-19T04:45:37.104Z,13.77
2022-12-19T04:48:04.374Z,11.65
2022-12-19T04:50:32.918Z,10.60
2022-12-19T04:52:59.443Z,10.23
2022-12-19T04:55:26.084Z,15.38
2022-12-19T04:57:52.565Z,10.43
2022-12-19T05:00:19.165Z,10.10
2022-12-19T05:02:45.703Z,15.45
2022-12-19T05:05:12.271Z,11.35
2022-12-19T05:07:38.877Z,11.48
2022-12-19T05:10:06.016Z,11.25
2022-12-19T05:12:32.730Z,11.43
2022-12-19T05:14:59.216Z,11.55
2022-12-19T05:17:26.094Z,11.90
2022-12-19T05:19:52.915Z,11.00
2022-12-19T05:22:20.378Z,13.50
2022-12-19T05:24:46.868Z,10.10
2022-12-19T05:27:13.529Z,10.30
2022-12-19T05:29:41.120Z,10.40
2022-12-19T05:32:07.650Z,12.65
2022-12-19T05:34:34.614Z,12.40
2022-12-19T05:37:03.199Z,12.32
2022-12-19T05:39:30.486Z,10.88
2022-12-19T05:41:58.471Z,10.98
2022-12-19T05:44:26.599Z,9.68
2022-12-19T05:46:53.451Z,10.75
2022-12-19T05:49:19.985Z,10.57
2022-12-19T05:51:46.810Z,11.82
2022-12-19T05:54:13.658Z,10.32
2022-12-19T05:56:40.356Z,10.90
2022-12-19T05:59:07.051Z,11.13
2022-12-19T06:01:33.955Z,9.48
2022-12-19T06:04:00.646Z,11.10
2022-12-19T06:06:27.467Z,9.98
2022-12-19T06:08:55.823Z,11.38
2022-12-19T06:11:24.189Z,11.32
2022-12-19T06:13:51.252Z,12.07
2022-12-19T06:16:19.689Z,9.38
2022-12-19T06:18:47.434Z,11.13
2022-12-19T06:21:16.796Z,10.63
2022-12-19T06:23:44.080Z,10.90
2022-12-19T06:26:17.155Z,10.05
2022-12-19T06:28:46.381Z,10.10
2022-12-19T06:31:13.402Z,12.57
2022-12-19T06:33:39.989Z,10.57
2022-12-19T06:36:10.623Z,12.02
2022-12-19T06:38:37.379Z,11.63
2022-12-19T06:41:22.434Z,9.93
2022-12-19T06:43:53.374Z,10.05
2022-12-19T06:46:20.573Z,11.30
2022-12-19T06:48:47.528Z,10.98
2022-12-19T06:51:14.184Z,11.45
2022-12-19T06:53:40.639Z,8.88
2022-12-19T06:56:08.301Z,10.45
2022-12-19T06:58:35.143Z,11.38
2022-12-19T07:01:02.191Z,11.48
2022-12-19T07:03:40.249Z,9.77
2022-12-19T07:06:07.472Z,9.10
2022-12-19T07:08:34.000Z,11.23
2022-12-19T07:11:00.514Z,11.02
2022-12-19T07:13:27.512Z,9.85
2022-12-19T07:15:56.868Z,11.15
2022-12-19T07:18:23.468Z,9.32
2022-12-19T07:20:49.920Z,13.45
2022-12-19T07:23:20.714Z,10.80
2022-12-19T07:25:47.576Z,9.63
2022-12-19T07:28:15.020Z,9.55
2022-12-19T07:30:41.769Z,10.57
2022-12-19T07:33:11.063Z,10.63
2022-12-19T07:35:38.326Z,9.77
2022-12-19T07:38:06.413Z,10.93
2022-12-19T07:40:34.732Z,11.73
2022-12-19T07:43:02.697Z,9.80
2022-12-19T07:45:30.118Z,10.32
2022-12-19T07:48:02.413Z,11.15
2022-12-19T07:52:57.997Z,8.98
2022-12-19T07:55:24.937Z,12.05
2022-12-19T07:57:51.449Z,8.82
2022-12-19T08:00:18.906Z,10.32
2022-12-19T08:02:46.883Z,9.57
2022-12-19T08:05:13.718Z,10.70
2022-12-19T08:07:40.808Z,9.65
2022-12-19T08:10:08.130Z,12.90
2022-12-19T08:12:34.599Z,8.77
2022-12-19T08:15:01.178Z,9.95
2022-12-19T08:17:27.673Z,10.98
2022-12-19T08:19:54.358Z,9.35
2022-12-19T08:22:20.874Z,10.80
2022-12-19T08:24:48.726Z,10.63
2022-12-19T08:27:19.672Z,10.15
2022-12-19T08:29:47.534Z,11.00
2022-12-19T08:32:20.488Z,8.60
2022-12-19T08:34:49.873Z,9.85
2022-12-19T08:37:17.264Z,9.48
2022-12-19T08:39:44.125Z,9.73
2022-12-19T08:42:10.553Z,9.15
2022-12-19T08:44:37.071Z,8.50
2022-12-19T08:47:03.551Z,9.15
2022-12-19T08:49:30.066Z,11.50
2022-12-19T08:51:56.553Z,9.48
2022-12-19T08:54:23.034Z,9.80
2022-12-19T08:56:49.703Z,8.52
2022-12-19T08:59:21.282Z,9.70
2022-12-19T09:01:57.464Z,9.27
2022-12-19T09:06:02.561Z,8.98
2022-12-19T09:07:10.767Z,9.02
2022-12-19T09:09:37.469Z,8.80
2022-12-19T09:12:04.042Z,8.68
2022-12-19T09:14:35.711Z,8.88
2022-12-19T09:17:03.831Z,9.38
2022-12-19T09:19:31.922Z,10.38
2022-12-19T09:22:00.107Z,9.00
2022-12-19T09:24:26.991Z,7.72
2022-12-19T09:26:53.541Z,9.20
2022-12-19T09:29:21.723Z,10.13
2022-12-19T09:31:55.257Z,9.70
2022-12-19T09:34:34.849Z,9.23
2022-12-19T09:37:08.955Z,10.10
2022-12-19T09:39:38.233Z,10.50
2022-12-19T09:42:21.390Z,8.93
2022-12-19T09:45:28.204Z,10.15
2022-12-19T09:47:59.929Z,8.57
2022-12-19T09:50:46.844Z,8.95
2022-12-19T09:53:27.765Z,9.15
2022-12-19T09:55:54.562Z,10.38
2022-12-19T09:58:32.636Z,10.48
2022-12-19T10:01:02.593Z,8.80
2022-12-19T10:03:47.839Z,8.93
2022-12-19T10:06:57.273Z,9.00
2022-12-19T10:09:54.097Z,9.57
2022-12-19T10:12:42.462Z,9.80
2022-12-19T10:15:44.015Z,8.43
2022-12-19T10:18:56.447Z,8.95
2022-12-19T10:22:16.402Z,9.07
2022-12-19T10:25:08.583Z,10.07
2022-12-19T10:27:59.276Z,7.78
2022-12-19T10:30:27.845Z,10.38
2022-12-19T10:33:25.480Z,9.55
2022-12-19T10:36:02.206Z,8.65
2022-12-19T10:38:38.421Z,8.82
2022-12-19T10:41:25.891Z,9.15
2022-12-19T10:44:02.675Z,9.50
2022-12-19T10:46:38.370Z,8.43
2022-12-19T10:49:16.757Z,8.18
2022-12-19T10:54:43.769Z,9.40
2022-12-19T10:57:19.354Z,8.30
2022-12-19T10:59:59.035Z,9.40
2022-12-19T11:02:40.256Z,6.28
2022-12-19T11:05:23.231Z,9.15
2022-12-19T11:08:07.927Z,10.63
2022-12-19T11:12:19.909Z,9.93
2022-12-19T11:18:24.930Z,8.95
2022-12-19T11:20:29.924Z,8.90
2022-12-19T11:29:25.475Z,10.32
2022-12-19T11:29:30.351Z,10.60
2022-12-19T11:30:35.710Z,9.27
2022-12-19T11:30:39.550Z,9.43
2022-12-19T11:34:16.063Z,8.63
2022-12-19T11:36:51.934Z,9.82
2022-12-19T11:39:33.548Z,10.38
2022-12-19T11:42:08.357Z,10.02
2022-12-19T11:44:44.405Z,9.43
2022-12-19T11:47:29.325Z,10.43
2022-12-19T11:50:05.802Z,9.82
2022-12-19T11:55:53.668Z,9.23
2022-12-19T11:58:22.661Z,9.52
2022-12-19T12:01:27.134Z,9.57
2022-12-19T12:04:24.805Z,8.90
2022-12-19T12:06:53.755Z,10.18
2022-12-19T12:15:33.681Z,9.60
2022-12-19T12:21:06.302Z,9.02
2022-12-19T12:28:01.732Z,10.25
2022-12-19T12:31:15.619Z,9.73
2022-12-19T12:31:22.342Z,9.82
2022-12-19T12:31:40.352Z,9.27
2022-12-19T12:31:45.128Z,10.23
2022-12-19T12:35:50.919Z,10.43
2022-12-19T12:41:09.571Z,9.77
2022-12-19T12:44:03.718Z,9.45
2022-12-19T12:46:40.032Z,9.70
2022-12-19T12:49:24.383Z,10.32
2022-12-19T12:51:52.402Z,11.07
2022-12-19T12:54:19.708Z,10.35
2022-12-19T12:56:48.518Z,12.93
2022-12-19T12:59:22.180Z,11.30
2022-12-19T13:02:14.477Z,10.85
2022-12-19T13:04:53.993Z,11.20
2022-12-19T13:07:36.359Z,10.80
2022-12-19T13:12:52.960Z,10.73
2022-12-19T13:15:22.345Z,12.57
2022-12-19T13:17:49.437Z,12.10
2022-12-19T13:20:35.996Z,12.20
2022-12-19T13:23:07.002Z,14.75
2022-12-19T13:25:36.831Z,13.55
2022-12-19T13:28:33.463Z,11.13
2022-12-19T13:31:23.233Z,12.35
2022-12-19T13:33:55.893Z,10.73
2022-12-19T13:39:52.180Z,10.85
2022-12-19T13:40:10.810Z,11.13
2022-12-19T13:43:10.551Z,12.07
2022-12-19T13:45:51.465Z,8.45
2022-12-19T13:48:26.488Z,10.90
2022-12-19T13:53:36.280Z,11.27
2022-12-19T13:56:06.407Z,11.35
2022-12-19T14:01:43.872Z,11.55
2022-12-19T14:04:15.837Z,11.35
2022-12-19T14:11:40.473Z,11.10
2022-12-19T14:13:43.608Z,10.18
2022-12-19T14:15:52.458Z,11.15
2022-12-19T14:18:44.546Z,14.07
2022-12-19T14:22:05.900Z,15.38
2022-12-19T14:24:53.063Z,10.48
2022-12-19T14:28:25.301Z,11.90
2022-12-19T14:30:32.738Z,11.75
2022-12-19T14:33:44.376Z,11.80
2022-12-19T14:36:10.247Z,12.15
2022-12-19T14:39:25.133Z,11.50
2022-12-19T14:42:02.524Z,12.75
2022-12-19T14:52:26.182Z,9.23
2022-12-19T14:54:08.373Z,11.07
2022-12-19T14:54:09.041Z,11.90
2022-12-19T14:55:17.227Z,11.50
2022-12-19T14:57:00.702Z,12.77
2022-12-19T15:00:05.622Z,12.00
2022-12-19T15:02:57.482Z,12.65
2022-12-19T15:05:34.002Z,12.88
2022-12-19T15:10:24.161Z,11.88
2022-12-19T15:12:05.802Z,11.23
2022-12-19T15:15:15.257Z,11.25
2022-12-19T15:17:49.464Z,12.05
2022-12-19T15:20:16.505Z,12.80
2022-12-19T15:23:02.217Z,11.45
2022-12-19T15:26:02.083Z,14.18
2022-12-19T15:28:26.935Z,12.18
2022-12-19T15:31:03.144Z,11.90
2022-12-19T15:34:23.338Z,13.15
2022-12-19T15:36:37.204Z,12.10
2022-12-19T15:39:04.554Z,12.15
2022-12-19T15:41:31.780Z,13.95
2022-12-19T15:44:04.830Z,12.48
2022-12-19T15:46:33.274Z,13.07
2022-12-19T15:48:59.861Z,12.85
2022-12-19T15:51:28.290Z,15.27
2022-12-19T15:54:08.915Z,13.45
2022-12-19T15:56:54.781Z,14.07
2022-12-19T15:59:44.910Z,13.30
2022-12-19T16:02:17.098Z,13.52
2022-12-19T16:04:49.627Z,13.82
2022-12-19T16:07:20.672Z,12.80
2022-12-19T16:09:49.245Z,13.55
2022-12-19T16:12:29.999Z,12.05
2022-12-19T16:15:13.840Z,13.73
2022-12-19T16:18:40.463Z,13.00
2022-12-19T16:21:18.392Z,13.98
2022-12-19T16:23:52.835Z,14.07
2022-12-19T16:32:09.170Z,12.02
2022-12-19T16:34:36.050Z,12.00
2022-12-19T16:34:46.766Z,14.52
2022-12-19T16:37:03.000Z,15.27
2022-12-19T16:39:35.275Z,14.10
2022-12-19T16:42:46.807Z,12.27
2022-12-19T16:45:22.406Z,14.60
2022-12-19T16:47:49.370Z,13.98
2022-12-19T16:50:25.630Z,13.75
2022-12-19T16:52:53.149Z,13.18
2022-12-19T16:55:20.055Z,15.73
2022-12-19T16:57:49.132Z,13.95
2022-12-19T17:00:22.928Z,14.02
2022-12-19T17:02:53.043Z,13.88
2022-12-19T17:05:23.114Z,13.80
2022-12-19T17:07:51.027Z,15.88
2022-12-19T17:10:26.191Z,13.50
2022-12-19T17:12:54.514Z,12.77
2022-12-19T17:15:36.981Z,14.93
2022-12-19T17:18:11.684Z,14.30
2022-12-19T17:20:47.848Z,14.02
2022-12-19T17:23:25.178Z,13.75
2022-12-19T17:25:53.322Z,13.15
2022-12-19T17:31:28.527Z,13.38
2022-12-19T17:33:58.293Z,13.02
2022-12-19T17:36:32.767Z,13.70
2022-12-19T17:39:01.803Z,14.43
2022-12-19T17:41:32.151Z,15.07
2022-12-19T17:43:58.721Z,14.07
2022-12-19T17:46:28.749Z,14.80
2022-12-19T17:48:55.405Z,15.88
2022-12-19T17:51:24.023Z,13.23
2022-12-19T17:53:53.759Z,14.23
2022-12-19T17:56:22.016Z,13.95
2022-12-19T17:59:04.335Z,12.77
2022-12-19T18:01:34.784Z,14.93
2022-12-19T18:04:01.856Z,14.30
2022-12-19T18:06:34.327Z,14.82
2022-12-19T18:09:03.133Z,14.95
2022-12-19T18:11:32.256Z,14.00
2022-12-19T18:14:01.895Z,14.18
2022-12-19T18:16:30.805Z,15.95
2022-12-19T18:18:57.394Z,14.98
2022-12-19T18:21:26.985Z,14.48
2022-12-19T18:23:53.734Z,14.15
2022-12-19T18:26:24.690Z,15.68
2022-12-19T18:28:54.671Z,14.68
2022-12-19T18:31:25.530Z,14.68
2022-12-19T18:33:54.629Z,14.95
2022-12-19T18:36:24.747Z,15.57
2022-12-19T18:38:52.266Z,14.05
2022-12-19T18:41:22.931Z,15.45
2022-12-19T18:43:49.807Z,14.23
2022-12-19T18:46:31.911Z,14.48
2022-12-19T18:48:58.563Z,13.60
2022-12-19T18:51:26.392Z,14.70
2022-12-19T18:53:54.077Z,14.02
2022-12-19T18:56:20.584Z,15.18
2022-12-19T18:58:47.086Z,14.20
2022-12-19T19:01:20.599Z,13.90
2022-12-19T19:03:59.582Z,14.07
2022-12-19T19:06:28.412Z,13.80
2022-12-19T19:08:57.155Z,14.82
2022-12-19T19:11:25.822Z,14.77
2022-12-19T19:13:57.653Z,14.32
2022-12-19T19:16:26.499Z,13.52
2022-12-19T19:18:57.236Z,12.73
2022-12-19T19:21:47.874Z,11.43
2022-12-19T19:24:18.183Z,14.35
2022-12-19T19:27:29.610Z,12.73
2022-12-19T19:30:24.516Z,12.82
2022-12-19T19:33:30.960Z,14.18
2022-12-19T19:36:29.629Z,14.57
2022-12-19T19:39:00.021Z,13.65
2022-12-19T19:41:35.546Z,14.75
2022-12-19T19:44:05.279Z,14.30
2022-12-19T19:46:49.867Z,13.60
2022-12-19T19:49:17.159Z,14.05
2022-12-19T19:52:00.572Z,13.38
2022-12-19T19:54:38.560Z,13.00
2022-12-19T19:57:05.247Z,14.30
2022-12-19T19:59:31.950Z,14.38
2022-12-19T20:01:58.918Z,14.88
2022-12-19T20:04:31.863Z,13.32
2022-12-19T20:07:05.339Z,12.65
2022-12-19T20:09:56.594Z,12.57
2022-12-19T20:12:28.219Z,14.90
2022-12-19T20:15:02.062Z,14.32
2022-12-19T20:17:31.746Z,12.93
2022-12-19T20:20:00.311Z,13.70
2022-12-19T20:22:26.949Z,13.38
2022-12-19T20:32:58.952Z,12.57
2022-12-19T20:35:31.855Z,12.63
2022-12-19T20:38:36.617Z,12.20
2022-12-19T20:41:46.624Z,13.30
2022-12-19T20:44:24.141Z,12.35
2022-12-19T20:46:59.274Z,12.45
2022-12-19T20:49:25.955Z,12.30
2022-12-19T20:51:55.014Z,13.43
2022-12-19T20:54:23.099Z,13.25
2022-12-19T20:56:50.659Z,13.95
2022-12-19T20:59:25.293Z,13.30
2022-12-19T21:02:01.252Z,13.35
2022-12-19T21:04:50.279Z,13.15
2022-12-19T21:07:52.276Z,13.32
2022-12-19T21:10:29.758Z,12.43
2022-12-19T21:13:57.750Z,12.90
2022-12-19T21:16:36.967Z,11.93
2022-12-19T21:19:11.433Z,12.77
2022-12-19T21:21:43.632Z,13.15
2022-12-19T21:24:15.880Z,12.27
2022-12-19T21:27:09.626Z,12.52
2022-12-19T21:29:37.281Z,12.88
2022-12-19T21:32:05.020Z,12.52
2022-12-19T21:34:43.193Z,12.00
2022-12-19T21:37:43.156Z,12.82
2022-12-19T21:40:11.057Z,12.75
2022-12-19T21:42:45.812Z,12.90
2022-12-19T21:45:29.215Z,12.20
2022-12-19T21:47:57.331Z,11.93
2022-12-19T21:50:25.774Z,11.70
2022-12-19T21:52:55.973Z,12.88
2022-12-19T21:55:26.851Z,13.02
2022-12-19T21:58:03.883Z,11.88
2022-12-19T22:00:36.315Z,12.43
2022-12-19T22:03:14.782Z,14.63
2022-12-19T22:05:44.570Z,12.20
2022-12-19T22:08:14.498Z,11.25
2022-12-19T22:10:44.407Z,12.73
2022-12-19T22:13:32.856Z,12.93
2022-12-19T22:16:02.037Z,11.10
2022-12-19T22:18:31.231Z,11.77
2022-12-19T22:20:59.980Z,11.77
2022-12-19T22:23:37.345Z,10.93
2022-12-19T22:26:12.678Z,11.95
2022-12-19T22:28:44.681Z,11.52
2022-12-19T22:33:45.476Z,11.25
2022-12-19T22:36:15.339Z,10.98
2022-12-19T22:38:44.483Z,11.13
2022-12-19T22:41:11.933Z,11.43
2022-12-19T22:43:39.123Z,10.82
2022-12-19T22:46:21.024Z,10.55
2022-12-19T22:48:49.965Z,11.07
2022-12-19T22:51:21.297Z,11.15
2022-12-19T22:53:48.453Z,11.48
2022-12-19T22:56:18.025Z,11.48
2022-12-19T22:58:47.603Z,11.18
2022-12-19T23:01:18.435Z,11.07
2022-12-19T23:03:47.121Z,11.27
2022-12-19T23:06:14.562Z,12.13
2022-12-19T23:08:41.450Z,10.02
2022-12-19T23:11:13.326Z,12.00
2022-12-19T23:13:40.747Z,11.27
2022-12-19T23:16:10.349Z,10.23
2022-12-19T23:18:39.755Z,10.05
2022-12-19T23:21:10.550Z,10.68
2022-12-19T23:23:40.687Z,10.13
2022-12-19T23:26:28.340Z,10.98
2022-12-19T23:28:57.395Z,9.93
2022-12-19T23:31:37.316Z,9.32
2022-12-19T23:34:03.999Z,9.75
2022-12-19T23:37:10.255Z,10.13
2022-12-19T23:39:20.091Z,9.85
2022-12-19T23:41:46.558Z,9.73
2022-12-19T23:44:13.122Z,10.13
2022-12-19T23:46:42.605Z,10.38
2022-12-19T23:49:09.046Z,10.02
2022-12-19T23:51:37.857Z,8.95
2022-12-19T23:54:04.387Z,9.88
2022-12-19T23:56:32.042Z,10.38
2022-12-19T23:58:59.333Z,9.70
